EWG56R EDDH-EDDS
Flight info
| Callsign | EWG56R |
|---|---|
| Flight time | 0h 56m |
| Altitude | 35000 |
| Route | IDEKO8C/05 IDEKO N850 NIE DCT BERXO DCT SILWE DCT OSBIT P605 TOSTU T726 LBU |
| Aircraft | A320/M-SDE3FGHIRWY/LB1 |
Departure
| Time | 2026-05-07 12:35 |
|---|---|
| Airport | Hamburg Helmut Schmidt Airport (EDDH) |
Arrival
| Time | 2026-05-07 13:31 |
|---|---|
| Airport | Stuttgart Airport (EDDS) |
| Time | Latitude | Longitude | Altitude | Speed | Heading |
|---|---|---|---|---|---|
| 2026-05-07 11:56 | 53.62926 | 10.00288 | 49 ft | 0 kts | 121° |
| 2026-05-07 12:26 | 53.62928 | 10.00285 | 51 ft | 3 kts | 121° |
| 2026-05-07 12:26 | 53.62942 | 10.00247 | 47 ft | 4 kts | 125° |
| 2026-05-07 12:26 | 53.62958 | 10.00211 | 49 ft | 4 kts | 134° |
| 2026-05-07 12:26 | 53.62979 | 10.00184 | 49 ft | 4 kts | 162° |
| 2026-05-07 12:27 | 53.62995 | 10.00182 | 51 ft | 0 kts | 212° |
| 2026-05-07 12:29 | 53.62975 | 10.00161 | 48 ft | 9 kts | 212° |
| 2026-05-07 12:29 | 53.62925 | 10.00108 | 51 ft | 8 kts | 212° |
| 2026-05-07 12:29 | 53.62880 | 10.00060 | 47 ft | 7 kts | 215° |
| 2026-05-07 12:30 | 53.62845 | 10.00008 | 50 ft | 6 kts | 222° |
| 2026-05-07 12:30 | 53.62825 | 9.99984 | 50 ft | 0 kts | 213° |
| 2026-05-07 12:31 | 53.62768 | 9.99928 | 49 ft | 18 kts | 208° |
| 2026-05-07 12:31 | 53.62658 | 9.99821 | 48 ft | 17 kts | 223° |
| 2026-05-07 12:31 | 53.62625 | 9.99647 | 50 ft | 15 kts | 258° |
| 2026-05-07 12:32 | 53.62603 | 9.99463 | 50 ft | 17 kts | 258° |
| 2026-05-07 12:32 | 53.62584 | 9.99277 | 51 ft | 15 kts | 259° |
| 2026-05-07 12:32 | 53.62560 | 9.99067 | 51 ft | 25 kts | 259° |
| 2026-05-07 12:32 | 53.62525 | 9.98760 | 51 ft | 24 kts | 259° |
| 2026-05-07 12:33 | 53.62463 | 9.98226 | 49 ft | 22 kts | 256° |
| 2026-05-07 12:33 | 53.62393 | 9.98015 | 50 ft | 20 kts | 230° |
| 2026-05-07 12:33 | 53.62300 | 9.97830 | 50 ft | 21 kts | 229° |
| 2026-05-07 12:34 | 53.62210 | 9.97646 | 50 ft | 20 kts | 235° |
| 2026-05-07 12:34 | 53.62194 | 9.97435 | 49 ft | 21 kts | 302° |
| 2026-05-07 12:34 | 53.62344 | 9.97421 | 48 ft | 31 kts | 45° |
| 2026-05-07 12:34 | 53.62664 | 9.98068 | 49 ft | 115 kts | 50° |
| 2026-05-07 12:35 | 53.63316 | 9.99418 | 225 ft | 168 kts | 54° |
| 2026-05-07 12:35 | 53.64072 | 10.00958 | 1113 ft | 169 kts | 51° |
| 2026-05-07 12:35 | 53.64819 | 10.02445 | 2028 ft | 164 kts | 51° |
| 2026-05-07 12:35 | 53.65584 | 10.03989 | 2480 ft | 183 kts | 49° |
| 2026-05-07 12:36 | 53.66491 | 10.05663 | 3052 ft | 200 kts | 49° |
| 2026-05-07 12:36 | 53.67433 | 10.07463 | 3827 ft | 207 kts | 51° |
| 2026-05-07 12:36 | 53.68427 | 10.09235 | 4751 ft | 210 kts | 38° |
| 2026-05-07 12:36 | 53.69805 | 10.10141 | 5586 ft | 220 kts | 6° |
| 2026-05-07 12:37 | 53.71327 | 10.09644 | 6247 ft | 241 kts | 333° |
| 2026-05-07 12:37 | 53.72575 | 10.07497 | 6669 ft | 271 kts | 301° |
| 2026-05-07 12:37 | 53.73464 | 10.04655 | 7384 ft | 282 kts | 298° |
| 2026-05-07 12:37 | 53.74310 | 10.01644 | 8279 ft | 286 kts | 291° |
| 2026-05-07 12:38 | 53.74712 | 9.98333 | 9211 ft | 290 kts | 272° |
| 2026-05-07 12:38 | 53.74533 | 9.94935 | 10132 ft | 292 kts | 256° |
| 2026-05-07 12:38 | 53.73843 | 9.91654 | 10738 ft | 306 kts | 247° |
| 2026-05-07 12:38 | 53.72988 | 9.88215 | 11054 ft | 327 kts | 247° |
| 2026-05-07 12:39 | 53.72079 | 9.84630 | 11736 ft | 335 kts | 247° |
| 2026-05-07 12:39 | 53.71152 | 9.81000 | 12525 ft | 338 kts | 247° |
| 2026-05-07 12:39 | 53.70215 | 9.77336 | 13341 ft | 341 kts | 247° |
| 2026-05-07 12:39 | 53.69270 | 9.73649 | 14088 ft | 344 kts | 247° |
| 2026-05-07 12:40 | 53.68318 | 9.69923 | 14792 ft | 347 kts | 247° |
| 2026-05-07 12:40 | 53.67352 | 9.66169 | 15479 ft | 349 kts | 245° |
| 2026-05-07 12:40 | 53.66045 | 9.62690 | 16136 ft | 354 kts | 230° |
| 2026-05-07 12:40 | 53.64237 | 9.59852 | 16835 ft | 358 kts | 217° |
| 2026-05-07 12:41 | 53.62044 | 9.57847 | 17552 ft | 362 kts | 202° |
| 2026-05-07 12:41 | 53.59589 | 9.56806 | 18205 ft | 367 kts | 189° |
| 2026-05-07 12:41 | 53.57044 | 9.56315 | 18800 ft | 370 kts | 187° |
| 2026-05-07 12:41 | 53.54472 | 9.55819 | 19379 ft | 372 kts | 188° |
| 2026-05-07 12:42 | 53.51892 | 9.55315 | 19973 ft | 375 kts | 188° |
| 2026-05-07 12:42 | 53.49294 | 9.54804 | 20560 ft | 376 kts | 188° |
| 2026-05-07 12:42 | 53.46687 | 9.54288 | 21125 ft | 379 kts | 188° |
| 2026-05-07 12:42 | 53.44059 | 9.53764 | 21655 ft | 381 kts | 188° |
| 2026-05-07 12:43 | 53.41414 | 9.53236 | 22182 ft | 384 kts | 188° |
| 2026-05-07 12:43 | 53.38785 | 9.52713 | 22719 ft | 387 kts | 188° |
| 2026-05-07 12:43 | 53.36100 | 9.52184 | 23250 ft | 389 kts | 188° |
| 2026-05-07 12:43 | 53.33395 | 9.51657 | 23754 ft | 392 kts | 188° |
| 2026-05-07 12:44 | 53.30677 | 9.51129 | 24180 ft | 395 kts | 188° |
| 2026-05-07 12:44 | 53.27933 | 9.50594 | 24612 ft | 398 kts | 187° |
| 2026-05-07 12:44 | 53.25178 | 9.50057 | 25016 ft | 400 kts | 188° |
| 2026-05-07 12:44 | 53.22397 | 9.49515 | 25429 ft | 403 kts | 187° |
| 2026-05-07 12:45 | 53.19606 | 9.48972 | 25843 ft | 405 kts | 187° |
| 2026-05-07 12:45 | 53.16798 | 9.48424 | 26237 ft | 407 kts | 187° |
| 2026-05-07 12:45 | 53.13974 | 9.47873 | 26626 ft | 410 kts | 188° |
| 2026-05-07 12:45 | 53.11131 | 9.47318 | 26991 ft | 413 kts | 188° |
| 2026-05-07 12:46 | 53.08267 | 9.46766 | 27385 ft | 415 kts | 188° |
| 2026-05-07 12:46 | 53.05392 | 9.46217 | 27783 ft | 417 kts | 188° |
| 2026-05-07 12:46 | 53.02502 | 9.45665 | 28150 ft | 419 kts | 187° |
| 2026-05-07 12:46 | 52.99595 | 9.45104 | 28504 ft | 422 kts | 187° |
| 2026-05-07 12:47 | 52.96702 | 9.44524 | 28848 ft | 425 kts | 188° |
| 2026-05-07 12:47 | 52.93757 | 9.43898 | 29205 ft | 428 kts | 188° |
| 2026-05-07 12:47 | 52.90794 | 9.43248 | 29570 ft | 430 kts | 188° |
| 2026-05-07 12:47 | 52.87819 | 9.42593 | 29888 ft | 432 kts | 188° |
| 2026-05-07 12:48 | 52.84816 | 9.41934 | 30185 ft | 435 kts | 188° |
| 2026-05-07 12:48 | 52.81799 | 9.41281 | 30443 ft | 438 kts | 188° |
| 2026-05-07 12:48 | 52.78772 | 9.40632 | 30698 ft | 440 kts | 188° |
| 2026-05-07 12:48 | 52.75764 | 9.39993 | 30952 ft | 443 kts | 188° |
| 2026-05-07 12:49 | 52.72662 | 9.39337 | 31208 ft | 445 kts | 187° |
| 2026-05-07 12:49 | 52.69581 | 9.38690 | 31461 ft | 447 kts | 188° |
| 2026-05-07 12:49 | 52.66491 | 9.38042 | 31756 ft | 448 kts | 187° |
| 2026-05-07 12:49 | 52.63380 | 9.37702 | 32101 ft | 449 kts | 179° |
| 2026-05-07 12:50 | 52.60310 | 9.38128 | 32447 ft | 449 kts | 171° |
| 2026-05-07 12:50 | 52.57255 | 9.39208 | 32770 ft | 449 kts | 167° |
| 2026-05-07 12:50 | 52.54214 | 9.40361 | 33142 ft | 449 kts | 167° |
| 2026-05-07 12:50 | 52.51127 | 9.41525 | 33474 ft | 449 kts | 167° |
| 2026-05-07 12:51 | 52.48119 | 9.42650 | 33807 ft | 449 kts | 167° |
| 2026-05-07 12:51 | 52.45060 | 9.43790 | 34139 ft | 449 kts | 167° |
| 2026-05-07 12:51 | 52.42007 | 9.44924 | 34429 ft | 449 kts | 167° |
| 2026-05-07 12:51 | 52.38959 | 9.46053 | 34714 ft | 449 kts | 168° |
| 2026-05-07 12:52 | 52.35911 | 9.47185 | 35028 ft | 448 kts | 168° |
| 2026-05-07 12:52 | 52.32879 | 9.48311 | 35351 ft | 447 kts | 168° |
| 2026-05-07 12:52 | 52.29880 | 9.49422 | 35653 ft | 445 kts | 168° |
| 2026-05-07 12:52 | 52.26858 | 9.50537 | 35936 ft | 445 kts | 168° |
| 2026-05-07 12:53 | 52.23834 | 9.51652 | 36059 ft | 443 kts | 168° |
| 2026-05-07 12:53 | 52.20838 | 9.52757 | 36078 ft | 440 kts | 169° |
| 2026-05-07 12:53 | 52.14884 | 9.54951 | 36072 ft | 438 kts | 168° |
| 2026-05-07 12:54 | 52.08949 | 9.57132 | 36069 ft | 438 kts | 168° |
| 2026-05-07 12:54 | 52.02991 | 9.59325 | 36066 ft | 438 kts | 168° |
| 2026-05-07 12:55 | 51.98132 | 9.61100 | 36060 ft | 438 kts | 168° |
| 2026-05-07 12:55 | 51.92219 | 9.63256 | 36059 ft | 438 kts | 168° |
| 2026-05-07 12:56 | 51.86269 | 9.65417 | 36057 ft | 438 kts | 169° |
| 2026-05-07 12:56 | 51.80322 | 9.67564 | 36051 ft | 437 kts | 168° |
| 2026-05-07 12:57 | 51.74380 | 9.69711 | 36043 ft | 438 kts | 168° |
| 2026-05-07 12:57 | 51.68428 | 9.71869 | 36031 ft | 437 kts | 169° |
| 2026-05-07 12:58 | 51.62491 | 9.74010 | 36034 ft | 437 kts | 169° |
| 2026-05-07 12:58 | 51.56591 | 9.76119 | 36029 ft | 437 kts | 169° |
| 2026-05-07 12:59 | 51.50655 | 9.78235 | 36029 ft | 437 kts | 169° |
| 2026-05-07 12:59 | 51.44717 | 9.80351 | 36025 ft | 437 kts | 168° |
| 2026-05-07 13:00 | 51.38782 | 9.82471 | 36016 ft | 437 kts | 169° |
| 2026-05-07 13:00 | 51.32839 | 9.84587 | 36018 ft | 437 kts | 168° |
| 2026-05-07 13:01 | 51.26891 | 9.86687 | 36020 ft | 437 kts | 169° |
| 2026-05-07 13:01 | 51.20935 | 9.88039 | 36016 ft | 434 kts | 182° |
| 2026-05-07 13:02 | 51.14901 | 9.87536 | 36006 ft | 434 kts | 184° |
| 2026-05-07 13:02 | 51.08880 | 9.86993 | 36012 ft | 434 kts | 184° |
| 2026-05-07 13:03 | 51.02840 | 9.86473 | 36011 ft | 435 kts | 185° |
| 2026-05-07 13:03 | 50.96787 | 9.85966 | 36011 ft | 435 kts | 184° |
| 2026-05-07 13:04 | 50.90740 | 9.85452 | 36007 ft | 435 kts | 184° |
| 2026-05-07 13:04 | 50.84694 | 9.84919 | 36006 ft | 435 kts | 184° |
| 2026-05-07 13:05 | 50.78646 | 9.84392 | 36010 ft | 435 kts | 184° |
| 2026-05-07 13:05 | 50.72631 | 9.83871 | 36010 ft | 436 kts | 184° |
| 2026-05-07 13:06 | 50.66565 | 9.83354 | 36010 ft | 436 kts | 184° |
| 2026-05-07 13:06 | 50.60512 | 9.82837 | 36012 ft | 435 kts | 184° |
| 2026-05-07 13:07 | 50.54459 | 9.82322 | 36010 ft | 435 kts | 184° |
| 2026-05-07 13:07 | 50.48407 | 9.81808 | 36015 ft | 435 kts | 184° |
| 2026-05-07 13:08 | 50.42396 | 9.81292 | 36009 ft | 435 kts | 184° |
| 2026-05-07 13:08 | 50.36352 | 9.80778 | 36007 ft | 435 kts | 185° |
| 2026-05-07 13:09 | 50.31316 | 9.80346 | 36008 ft | 435 kts | 184° |
| 2026-05-07 13:09 | 50.25274 | 9.79833 | 36009 ft | 435 kts | 184° |
| 2026-05-07 13:10 | 50.19204 | 9.79327 | 35155 ft | 443 kts | 184° |
| 2026-05-07 13:10 | 50.15061 | 9.78985 | 33894 ft | 447 kts | 184° |
| 2026-05-07 13:10 | 50.12982 | 9.78814 | 33533 ft | 439 kts | 184° |
| 2026-05-07 13:11 | 50.09949 | 9.78566 | 32991 ft | 434 kts | 184° |
| 2026-05-07 13:11 | 50.06943 | 9.78354 | 32434 ft | 430 kts | 181° |
| 2026-05-07 13:11 | 50.04008 | 9.78504 | 31899 ft | 425 kts | 178° |
| 2026-05-07 13:11 | 50.01063 | 9.78687 | 31357 ft | 419 kts | 178° |
| 2026-05-07 13:12 | 49.98205 | 9.78870 | 30855 ft | 404 kts | 179° |
| 2026-05-07 13:12 | 49.95441 | 9.79051 | 30360 ft | 391 kts | 179° |
| 2026-05-07 13:12 | 49.92756 | 9.79226 | 29841 ft | 380 kts | 179° |
| 2026-05-07 13:12 | 49.90150 | 9.79394 | 29377 ft | 373 kts | 179° |
| 2026-05-07 13:13 | 49.87556 | 9.79559 | 28924 ft | 372 kts | 179° |
| 2026-05-07 13:13 | 49.84977 | 9.79724 | 28483 ft | 370 kts | 179° |
| 2026-05-07 13:13 | 49.82406 | 9.79888 | 28047 ft | 370 kts | 179° |
| 2026-05-07 13:13 | 49.79844 | 9.80048 | 27596 ft | 369 kts | 179° |
| 2026-05-07 13:14 | 49.77249 | 9.80210 | 27038 ft | 383 kts | 179° |
| 2026-05-07 13:14 | 49.74616 | 9.80379 | 26757 ft | 374 kts | 179° |
| 2026-05-07 13:14 | 49.72029 | 9.80547 | 26345 ft | 370 kts | 179° |
| 2026-05-07 13:14 | 49.69465 | 9.80706 | 25955 ft | 368 kts | 180° |
| 2026-05-07 13:15 | 49.66864 | 9.80837 | 25424 ft | 377 kts | 180° |
| 2026-05-07 13:15 | 49.64246 | 9.80947 | 25019 ft | 374 kts | 180° |
| 2026-05-07 13:15 | 49.61645 | 9.81059 | 24564 ft | 373 kts | 179° |
| 2026-05-07 13:15 | 49.59076 | 9.81555 | 24097 ft | 372 kts | 171° |
| 2026-05-07 13:16 | 49.56530 | 9.82268 | 23605 ft | 372 kts | 171° |
| 2026-05-07 13:16 | 49.53989 | 9.82975 | 23052 ft | 370 kts | 172° |
| 2026-05-07 13:16 | 49.51464 | 9.83673 | 22570 ft | 367 kts | 172° |
| 2026-05-07 13:16 | 49.48953 | 9.84366 | 22089 ft | 365 kts | 172° |
| 2026-05-07 13:17 | 49.46456 | 9.85055 | 21610 ft | 363 kts | 172° |
| 2026-05-07 13:17 | 49.43960 | 9.85469 | 21105 ft | 357 kts | 182° |
| 2026-05-07 13:17 | 49.41522 | 9.85413 | 20571 ft | 353 kts | 184° |
| 2026-05-07 13:17 | 49.39078 | 9.85308 | 20047 ft | 350 kts | 184° |
| 2026-05-07 13:18 | 49.36647 | 9.85207 | 19479 ft | 347 kts | 184° |
| 2026-05-07 13:18 | 49.34238 | 9.85103 | 18915 ft | 343 kts | 184° |
| 2026-05-07 13:18 | 49.31854 | 9.85004 | 18359 ft | 340 kts | 184° |
| 2026-05-07 13:18 | 49.29499 | 9.84918 | 17740 ft | 338 kts | 184° |
| 2026-05-07 13:19 | 49.27146 | 9.84827 | 17123 ft | 337 kts | 184° |
| 2026-05-07 13:19 | 49.24852 | 9.84735 | 16516 ft | 331 kts | 184° |
| 2026-05-07 13:19 | 49.22561 | 9.84641 | 15928 ft | 327 kts | 184° |
| 2026-05-07 13:19 | 49.20352 | 9.84101 | 15372 ft | 318 kts | 201° |
| 2026-05-07 13:20 | 49.18287 | 9.82924 | 14790 ft | 313 kts | 204° |
| 2026-05-07 13:20 | 49.16283 | 9.81690 | 14238 ft | 308 kts | 204° |
| 2026-05-07 13:20 | 49.14311 | 9.80475 | 13661 ft | 302 kts | 205° |
| 2026-05-07 13:20 | 49.12374 | 9.79292 | 13035 ft | 298 kts | 204° |
| 2026-05-07 13:21 | 49.10463 | 9.78135 | 12434 ft | 294 kts | 204° |
| 2026-05-07 13:21 | 49.08573 | 9.76986 | 11836 ft | 290 kts | 204° |
| 2026-05-07 13:21 | 49.06726 | 9.75870 | 11263 ft | 288 kts | 204° |
| 2026-05-07 13:21 | 49.04868 | 9.74754 | 10689 ft | 286 kts | 204° |
| 2026-05-07 13:22 | 49.03008 | 9.73648 | 10183 ft | 286 kts | 204° |
| 2026-05-07 13:22 | 49.01164 | 9.72562 | 9848 ft | 285 kts | 204° |
| 2026-05-07 13:22 | 48.99318 | 9.71480 | 9238 ft | 282 kts | 204° |
| 2026-05-07 13:22 | 48.97501 | 9.70421 | 8620 ft | 277 kts | 203° |
| 2026-05-07 13:23 | 48.95720 | 9.69368 | 8140 ft | 272 kts | 204° |
| 2026-05-07 13:23 | 48.93973 | 9.68333 | 8029 ft | 261 kts | 204° |
| 2026-05-07 13:23 | 48.92316 | 9.67359 | 8038 ft | 253 kts | 204° |
| 2026-05-07 13:23 | 48.90711 | 9.66419 | 7679 ft | 249 kts | 204° |
| 2026-05-07 13:24 | 48.89114 | 9.65482 | 7230 ft | 241 kts | 204° |
| 2026-05-07 13:24 | 48.87618 | 9.64423 | 6783 ft | 234 kts | 212° |
| 2026-05-07 13:24 | 48.86221 | 9.63178 | 6260 ft | 232 kts | 214° |
| 2026-05-07 13:24 | 48.84845 | 9.61904 | 5704 ft | 231 kts | 214° |
| 2026-05-07 13:25 | 48.83479 | 9.60639 | 5286 ft | 226 kts | 214° |
| 2026-05-07 13:25 | 48.82168 | 9.59425 | 5134 ft | 215 kts | 214° |
| 2026-05-07 13:25 | 48.80902 | 9.58265 | 5046 ft | 211 kts | 214° |
| 2026-05-07 13:25 | 48.79644 | 9.57124 | 5000 ft | 209 kts | 214° |
| 2026-05-07 13:26 | 48.78407 | 9.55997 | 4996 ft | 210 kts | 214° |
| 2026-05-07 13:26 | 48.77156 | 9.54864 | 5002 ft | 210 kts | 214° |
| 2026-05-07 13:26 | 48.75905 | 9.53734 | 5001 ft | 209 kts | 216° |
| 2026-05-07 13:26 | 48.74851 | 9.52254 | 4912 ft | 205 kts | 237° |
| 2026-05-07 13:27 | 48.74259 | 9.50314 | 4692 ft | 203 kts | 255° |
| 2026-05-07 13:27 | 48.73879 | 9.48266 | 4431 ft | 199 kts | 256° |
| 2026-05-07 13:27 | 48.73519 | 9.46314 | 4191 ft | 184 kts | 256° |
| 2026-05-07 13:27 | 48.73190 | 9.44552 | 3938 ft | 166 kts | 256° |
| 2026-05-07 13:28 | 48.72885 | 9.42921 | 3724 ft | 156 kts | 256° |
| 2026-05-07 13:28 | 48.72602 | 9.41408 | 3552 ft | 146 kts | 256° |
| 2026-05-07 13:28 | 48.72327 | 9.39935 | 3337 ft | 144 kts | 257° |
| 2026-05-07 13:28 | 48.72057 | 9.38498 | 3139 ft | 141 kts | 258° |
| 2026-05-07 13:29 | 48.71790 | 9.37074 | 2962 ft | 140 kts | 258° |
| 2026-05-07 13:29 | 48.71523 | 9.35651 | 2776 ft | 142 kts | 256° |
| 2026-05-07 13:29 | 48.71253 | 9.34211 | 2572 ft | 141 kts | 257° |
| 2026-05-07 13:29 | 48.70987 | 9.32803 | 2395 ft | 141 kts | 257° |
| 2026-05-07 13:30 | 48.70718 | 9.31355 | 2172 ft | 139 kts | 258° |
| 2026-05-07 13:30 | 48.70455 | 9.29944 | 1982 ft | 144 kts | 256° |
| 2026-05-07 13:30 | 48.70164 | 9.28494 | 1809 ft | 144 kts | 257° |
| 2026-05-07 13:30 | 48.69897 | 9.27025 | 1637 ft | 144 kts | 258° |
| 2026-05-07 13:31 | 48.69626 | 9.25556 | 1459 ft | 145 kts | 257° |
| 2026-05-07 13:31 | 48.69344 | 9.24092 | 1309 ft | 144 kts | 258° |
| 2026-05-07 13:31 | 48.69101 | 9.22753 | 1288 ft | 103 kts | 256° |
| 2026-05-07 13:31 | 48.68953 | 9.21997 | 1286 ft | 46 kts | 256° |
| 2026-05-07 13:32 | 48.68963 | 9.21628 | 1291 ft | 21 kts | 286° |
| 2026-05-07 13:32 | 48.68991 | 9.21457 | 1291 ft | 17 kts | 283° |
| 2026-05-07 13:32 | 48.68990 | 9.21283 | 1288 ft | 15 kts | 256° |
| 2026-05-07 13:32 | 48.68960 | 9.21121 | 1288 ft | 17 kts | 253° |
| 2026-05-07 13:33 | 48.68926 | 9.20941 | 1287 ft | 19 kts | 254° |
| 2026-05-07 13:33 | 48.68888 | 9.20741 | 1289 ft | 21 kts | 254° |
| 2026-05-07 13:33 | 48.68848 | 9.20528 | 1285 ft | 17 kts | 254° |
| 2026-05-07 13:33 | 48.68820 | 9.20378 | 1285 ft | 16 kts | 253° |
| 2026-05-07 13:34 | 48.68788 | 9.20211 | 1290 ft | 18 kts | 253° |
| 2026-05-07 13:34 | 48.68761 | 9.19861 | 1286 ft | 18 kts | 252° |
| 2026-05-07 13:34 | 48.68724 | 9.19671 | 1287 ft | 20 kts | 254° |
| 2026-05-07 13:35 | 48.68683 | 9.19460 | 1290 ft | 22 kts | 253° |
| 2026-05-07 13:35 | 48.68642 | 9.19247 | 1287 ft | 20 kts | 260° |
| 2026-05-07 13:35 | 48.68727 | 9.19148 | 1288 ft | 14 kts | 352° |
| 2026-05-07 13:35 | 48.68786 | 9.19244 | 1289 ft | 11 kts | 31° |
| 2026-05-07 13:36 | 48.68839 | 9.19225 | 1287 ft | 8 kts | 349° |
| 2026-05-07 13:36 | 48.68855 | 9.19221 | 1285 ft | 0 kts | 348° |
| 2026-05-07 13:36 | 48.68856 | 9.19220 | 1285 ft | 0 kts | 343° |